Bulktec — VRFJ3 — position and weather

sailwx.info

Track history (hours):
 
Tides and Currents Weather Stations Pressure Air Temp Water Temp Dewpoint Dewpoint Depression Visibility Wind Speed Wind Dir Waves Ship Positions

Bulktec

Last reported at 2015-Jul-02 13:23 UTC. Time now 2015-Jul-07 04:36 UTC.
Position N 38°50' E 121°46'.

Length 179 m; draft 6.6 m.

Type: Cargo ship. MMSI: 3699076.

Date/timePositionNaut miles runAvg speedWind from/ knotsBaromVisibWave heightAir tempDewpointWater temp
2015-Jul-02 13:23N 38°50' E 121°46'6 0.1
2015-Jun-30 15:06N 38°56' E 121°45'5 0.4
2015-Jun-30 04:08N 39°01' E 121°45'0 0.0
2015-Jun-30 03:11N 39°01' E 121°45'0 0.0
2015-Jun-30 02:26N 39°01' E 121°45'0 0.0
2015-Jun-29 22:29N 39°01' E 121°45'0 0.0
2015-Jun-29 18:29N 39°01' E 121°45'0 0.0
2015-Jun-29 14:23N 39°01' E 121°45'0 0.0
2015-Jun-29 13:08N 39°01' E 121°45'0 0.0
2015-Jun-29 11:26N 39°01' E 121°45'0 0.0
2015-Jun-29 09:20N 39°01' E 121°45'0 0.0
2015-Jun-29 08:15N 39°01' E 121°45'0 0.0
2015-Jun-28 22:05N 39°01' E 121°45'0 0.0
2015-Jun-28 21:29N 39°01' E 121°45'0 0.0
2015-Jun-28 19:17N 39°01' E 121°45'0 0.0
2015-Jun-28 18:11N 39°01' E 121°45'0 0.0
2015-Jun-28 15:11N 39°01' E 121°45'0 0.0
2015-Jun-28 12:29N 39°01' E 121°45'0 0.0
2015-Jun-28 09:29N 39°01' E 121°45'0 0.0
2015-Jun-27 22:32N 39°01' E 121°45'0 0.0
2015-Jun-27 19:14N 39°01' E 121°45'0 0.0
2015-Jun-27 14:29N 39°01' E 121°45'0 0.0
2015-Jun-27 13:08N 39°01' E 121°45'0 0.0
2015-Jun-27 11:17N 39°01' E 121°45'0 0.0
2015-Jun-27 10:17N 39°01' E 121°45'0 0.0
2015-Jun-27 09:29N 39°01' E 121°45'0 0.0
2015-Jun-27 04:33N 39°01' E 121°45'9 7.8
2015-Jun-27 03:25N 38°52' E 121°47'  
2015-Jun-24 20:17N 38°53' E 121°59'5 6.3
2015-Jun-24 19:33N 38°49' E 122°02'1110.9
2015-Jun-24 18:33N 38°38' E 122°06'1211.1
2015-Jun-24 17:27N 38°26' E 122°10'447 9.7
2015-Jun-22 19:33N 30°60' E 122°28'1111.1
2015-Jun-22 18:33N 31°02' E 122°15'8 8.5
2015-Jun-22 17:33N 31°04' E 122°06'10 9.6
2015-Jun-22 16:33N 31°07' E 121°55'1212.0
2015-Jun-22 15:33N 31°16' E 121°45'1211.7
2015-Jun-22 14:33N 31°23' E 121°35'9 8.9
2015-Jun-22 13:33N 31°29' E 121°27'  
Track history (hours):
 
Tides and Currents Weather Stations Pressure Air Temp Water Temp Dewpoint Dewpoint Depression Visibility Wind Speed Wind Dir Waves Ship Positions

Bulktec

Last reported at 2015-Jul-02 13:23 UTC. Time now 2015-Jul-07 04:36 UTC.
Position N 38°50' E 121°46'.

Length 179 m; draft 6.6 m.

Type: Cargo ship. MMSI: 3699076.

Date/timePositionNaut miles runAvg speedWind from/ knotsBaromVisibWave heightAir tempDewpointWater temp
2015-Jul-02 13:23N 38°50' E 121°46'6 0.1
2015-Jun-30 15:06N 38°56' E 121°45'5 0.4
2015-Jun-30 04:08N 39°01' E 121°45'0 0.0
2015-Jun-30 03:11N 39°01' E 121°45'0 0.0
2015-Jun-30 02:26N 39°01' E 121°45'0 0.0
2015-Jun-29 22:29N 39°01' E 121°45'0 0.0
2015-Jun-29 18:29N 39°01' E 121°45'0 0.0
2015-Jun-29 14:23N 39°01' E 121°45'0 0.0
2015-Jun-29 13:08N 39°01' E 121°45'0 0.0
2015-Jun-29 11:26N 39°01' E 121°45'0 0.0
2015-Jun-29 09:20N 39°01' E 121°45'0 0.0
2015-Jun-29 08:15N 39°01' E 121°45'0 0.0
2015-Jun-28 22:05N 39°01' E 121°45'0 0.0
2015-Jun-28 21:29N 39°01' E 121°45'0 0.0
2015-Jun-28 19:17N 39°01' E 121°45'0 0.0
2015-Jun-28 18:11N 39°01' E 121°45'0 0.0
2015-Jun-28 15:11N 39°01' E 121°45'0 0.0
2015-Jun-28 12:29N 39°01' E 121°45'0 0.0
2015-Jun-28 09:29N 39°01' E 121°45'0 0.0
2015-Jun-27 22:32N 39°01' E 121°45'0 0.0
2015-Jun-27 19:14N 39°01' E 121°45'0 0.0
2015-Jun-27 14:29N 39°01' E 121°45'0 0.0
2015-Jun-27 13:08N 39°01' E 121°45'0 0.0
2015-Jun-27 11:17N 39°01' E 121°45'0 0.0
2015-Jun-27 10:17N 39°01' E 121°45'0 0.0
2015-Jun-27 09:29N 39°01' E 121°45'0 0.0
2015-Jun-27 04:33N 39°01' E 121°45'9 7.8
2015-Jun-27 03:25N 38°52' E 121°47'  
2015-Jun-24 20:17N 38°53' E 121°59'5 6.3
2015-Jun-24 19:33N 38°49' E 122°02'1110.9
2015-Jun-24 18:33N 38°38' E 122°06'1211.1
2015-Jun-24 17:27N 38°26' E 122°10'447 9.7
2015-Jun-22 19:33N 30°60' E 122°28'1111.1
2015-Jun-22 18:33N 31°02' E 122°15'8 8.5
2015-Jun-22 17:33N 31°04' E 122°06'10 9.6
2015-Jun-22 16:33N 31°07' E 121°55'1212.0
2015-Jun-22 15:33N 31°16' E 121°45'1211.7
2015-Jun-22 14:33N 31°23' E 121°35'9 8.9
2015-Jun-22 13:33N 31°29' E 121°27'  

Dump ship's entire track history